sensor_id;sensor_type;location;lat;lon;timestamp;temperature;humidity
11963;DHT22;62678;52.130;5.584;2023-07-16T00:01:54;18.00;99.90
11963;DHT22;62678;52.130;5.584;2023-07-16T00:04:21;18.00;99.90
11963;DHT22;62678;52.130;5.584;2023-07-16T00:06:48;18.00;99.90
11963;DHT22;62678;52.130;5.584;2023-07-16T00:09:17;18.00;99.90
11963;DHT22;62678;52.130;5.584;2023-07-16T00:11:44;18.10;99.90
11963;DHT22;62678;52.130;5.584;2023-07-16T00:14:11;18.20;99.90
11963;DHT22;62678;52.130;5.584;2023-07-16T00:16:38;18.20;98.50
11963;DHT22;62678;52.130;5.584;2023-07-16T00:19:05;18.30;92.20
11963;DHT22;62678;52.130;5.584;2023-07-16T00:21:32;18.30;83.30
11963;DHT22;62678;52.130;5.584;2023-07-16T00:23:59;18.30;62.70
11963;DHT22;62678;52.130;5.584;2023-07-16T00:26:28;18.30;62.90
11963;DHT22;62678;52.130;5.584;2023-07-16T00:28:55;18.20;62.80
11963;DHT22;62678;52.130;5.584;2023-07-16T00:31:22;18.20;58.40
11963;DHT22;62678;52.130;5.584;2023-07-16T00:33:49;18.20;57.20
11963;DHT22;62678;52.130;5.584;2023-07-16T00:36:16;18.20;58.50
11963;DHT22;62678;52.130;5.584;2023-07-16T00:38:43;18.10;63.30
11963;DHT22;62678;52.130;5.584;2023-07-16T00:41:13;18.00;60.00
11963;DHT22;62678;52.130;5.584;2023-07-16T00:43:41;18.00;60.00
11963;DHT22;62678;52.130;5.584;2023-07-16T00:46:08;18.00;60.00
11963;DHT22;62678;52.130;5.584;2023-07-16T00:48:35;18.00;57.90
11963;DHT22;62678;52.130;5.584;2023-07-16T00:51:03;17.90;60.10
11963;DHT22;62678;52.130;5.584;2023-07-16T00:53:31;18.00;57.10
11963;DHT22;62678;52.130;5.584;2023-07-16T00:55:58;17.90;59.30
11963;DHT22;62678;52.130;5.584;2023-07-16T00:58:25;17.90;59.30
11963;DHT22;62678;52.130;5.584;2023-07-16T01:00:54;17.90;53.50
11963;DHT22;62678;52.130;5.584;2023-07-16T01:03:21;17.90;56.80
11963;DHT22;62678;52.130;5.584;2023-07-16T01:06:02;17.90;55.10
11963;DHT22;62678;52.130;5.584;2023-07-16T01:08:34;17.90;54.60
11963;DHT22;62678;52.130;5.584;2023-07-16T01:11:03;18.00;54.40
11963;DHT22;62678;52.130;5.584;2023-07-16T01:13:30;17.90;56.40
11963;DHT22;62678;52.130;5.584;2023-07-16T01:16:01;17.80;59.50
11963;DHT22;62678;52.130;5.584;2023-07-16T01:18:28;17.70;66.60
11963;DHT22;62678;52.130;5.584;2023-07-16T01:20:55;17.80;67.40
11963;DHT22;62678;52.130;5.584;2023-07-16T01:23:47;17.80;60.60
11963;DHT22;62678;52.130;5.584;2023-07-16T01:26:36;17.80;66.10
11963;DHT22;62678;52.130;5.584;2023-07-16T01:29:21;17.80;58.80
11963;DHT22;62678;52.130;5.584;2023-07-16T01:31:55;17.70;64.60
11963;DHT22;62678;52.130;5.584;2023-07-16T01:34:24;17.70;62.50
11963;DHT22;62678;52.130;5.584;2023-07-16T01:36:51;17.60;68.00
11963;DHT22;62678;52.130;5.584;2023-07-16T01:39:19;17.60;70.10
11963;DHT22;62678;52.130;5.584;2023-07-16T01:41:46;17.60;66.70
11963;DHT22;62678;52.130;5.584;2023-07-16T01:44:14;17.60;68.90
11963;DHT22;62678;52.130;5.584;2023-07-16T01:46:43;17.50;75.70
11963;DHT22;62678;52.130;5.584;2023-07-16T01:49:10;17.50;77.80
11963;DHT22;62678;52.130;5.584;2023-07-16T01:51:37;17.50;87.30
11963;DHT22;62678;52.130;5.584;2023-07-16T01:54:04;17.50;84.90
11963;DHT22;62678;52.130;5.584;2023-07-16T01:56:31;17.50;87.20
11963;DHT22;62678;52.130;5.584;2023-07-16T01:58:58;17.50;90.60
11963;DHT22;62678;52.130;5.584;2023-07-16T02:01:27;17.40;90.30
11963;DHT22;62678;52.130;5.584;2023-07-16T02:03:54;17.50;93.30
11963;DHT22;62678;52.130;5.584;2023-07-16T02:06:21;17.40;96.20
11963;DHT22;62678;52.130;5.584;2023-07-16T02:08:48;17.40;99.90
11963;DHT22;62678;52.130;5.584;2023-07-16T02:11:15;17.40;98.30
11963;DHT22;62678;52.130;5.584;2023-07-16T02:13:42;17.40;99.90
11963;DHT22;62678;52.130;5.584;2023-07-16T02:16:09;17.40;99.90
11963;DHT22;62678;52.130;5.584;2023-07-16T02:18:37;17.30;99.90
11963;DHT22;62678;52.130;5.584;2023-07-16T02:21:04;17.30;99.90
11963;DHT22;62678;52.130;5.584;2023-07-16T02:23:31;17.30;99.90
11963;DHT22;62678;52.130;5.584;2023-07-16T02:25:58;17.30;99.90
11963;DHT22;62678;52.130;5.584;2023-07-16T02:28:25;17.20;99.90
11963;DHT22;62678;52.130;5.584;2023-07-16T02:30:52;17.20;99.90
11963;DHT22;62678;52.130;5.584;2023-07-16T02:33:20;17.20;99.90
11963;DHT22;62678;52.130;5.584;2023-07-16T02:35:49;17.20;99.90
11963;DHT22;62678;52.130;5.584;2023-07-16T02:38:21;17.10;99.90
11963;DHT22;62678;52.130;5.584;2023-07-16T02:40:48;17.10;99.90
11963;DHT22;62678;52.130;5.584;2023-07-16T02:43:15;17.10;99.90
11963;DHT22;62678;52.130;5.584;2023-07-16T02:45:42;17.20;99.90
11963;DHT22;62678;52.130;5.584;2023-07-16T02:48:09;17.20;99.90
11963;DHT22;62678;52.130;5.584;2023-07-16T02:50:37;17.10;99.90
11963;DHT22;62678;52.130;5.584;2023-07-16T02:53:08;17.10;99.90
11963;DHT22;62678;52.130;5.584;2023-07-16T02:55:35;17.20;99.90
11963;DHT22;62678;52.130;5.584;2023-07-16T02:58:02;17.10;99.90
11963;DHT22;62678;52.130;5.584;2023-07-16T03:00:30;17.20;99.90
11963;DHT22;62678;52.130;5.584;2023-07-16T03:02:58;17.20;99.90
11963;DHT22;62678;52.130;5.584;2023-07-16T03:05:25;17.30;99.90
11963;DHT22;62678;52.130;5.584;2023-07-16T03:07:52;17.30;99.90
11963;DHT22;62678;52.130;5.584;2023-07-16T03:10:22;17.20;99.90
11963;DHT22;62678;52.130;5.584;2023-07-16T03:12:49;17.20;99.90
11963;DHT22;62678;52.130;5.584;2023-07-16T03:15:16;17.10;99.90
11963;DHT22;62678;52.130;5.584;2023-07-16T03:17:43;17.00;99.90
11963;DHT22;62678;52.130;5.584;2023-07-16T03:20:10;17.00;99.90
11963;DHT22;62678;52.130;5.584;2023-07-16T03:22:38;17.00;99.90
11963;DHT22;62678;52.130;5.584;2023-07-16T03:25:06;17.00;99.90
11963;DHT22;62678;52.130;5.584;2023-07-16T03:27:35;17.00;99.90
11963;DHT22;62678;52.130;5.584;2023-07-16T03:30:02;17.00;99.90
11963;DHT22;62678;52.130;5.584;2023-07-16T03:32:29;17.10;99.90
11963;DHT22;62678;52.130;5.584;2023-07-16T03:34:56;17.00;99.90
11963;DHT22;62678;52.130;5.584;2023-07-16T03:37:23;17.10;99.90
11963;DHT22;62678;52.130;5.584;2023-07-16T03:39:51;16.90;99.90
11963;DHT22;62678;52.130;5.584;2023-07-16T03:42:18;16.90;99.90
11963;DHT22;62678;52.130;5.584;2023-07-16T03:44:49;16.90;99.90
11963;DHT22;62678;52.130;5.584;2023-07-16T03:47:16;16.90;99.90
11963;DHT22;62678;52.130;5.584;2023-07-16T03:49:43;16.90;99.90
11963;DHT22;62678;52.130;5.584;2023-07-16T03:52:10;16.80;99.90
11963;DHT22;62678;52.130;5.584;2023-07-16T03:54:37;16.80;99.90
11963;DHT22;62678;52.130;5.584;2023-07-16T03:57:04;16.80;99.90
11963;DHT22;62678;52.130;5.584;2023-07-16T03:59:31;16.80;99.90
11963;DHT22;62678;52.130;5.584;2023-07-16T04:01:59;16.90;99.90
11963;DHT22;62678;52.130;5.584;2023-07-16T04:04:26;16.80;99.90
11963;DHT22;62678;52.130;5.584;2023-07-16T04:06:56;16.90;99.90
11963;DHT22;62678;52.130;5.584;2023-07-16T04:09:23;16.90;99.90
11963;DHT22;62678;52.130;5.584;2023-07-16T04:11:55;16.90;99.90
11963;DHT22;62678;52.130;5.584;2023-07-16T04:14:22;16.90;99.90
11963;DHT22;62678;52.130;5.584;2023-07-16T04:16:49;16.80;99.90
11963;DHT22;62678;52.130;5.584;2023-07-16T04:19:18;16.80;99.90
11963;DHT22;62678;52.130;5.584;2023-07-16T04:21:45;16.80;99.90
11963;DHT22;62678;52.130;5.584;2023-07-16T04:24:12;16.80;99.90
11963;DHT22;62678;52.130;5.584;2023-07-16T04:26:39;16.90;99.90
11963;DHT22;62678;52.130;5.584;2023-07-16T04:29:06;17.00;99.90
11963;DHT22;62678;52.130;5.584;2023-07-16T04:31:33;17.00;99.90
11963;DHT22;62678;52.130;5.584;2023-07-16T04:34:01;17.00;99.90
11963;DHT22;62678;52.130;5.584;2023-07-16T04:36:29;17.00;99.90
11963;DHT22;62678;52.130;5.584;2023-07-16T04:38:56;17.10;99.90
11963;DHT22;62678;52.130;5.584;2023-07-16T04:41:23;17.10;99.90
11963;DHT22;62678;52.130;5.584;2023-07-16T04:43:51;17.20;99.90
11963;DHT22;62678;52.130;5.584;2023-07-16T04:46:18;17.30;99.90
11963;DHT22;62678;52.130;5.584;2023-07-16T04:48:45;17.20;99.90
11963;DHT22;62678;52.130;5.584;2023-07-16T04:51:12;17.30;99.90
11963;DHT22;62678;52.130;5.584;2023-07-16T04:53:40;17.20;99.90
11963;DHT22;62678;52.130;5.584;2023-07-16T04:56:11;17.20;99.90
11963;DHT22;62678;52.130;5.584;2023-07-16T04:58:39;17.20;99.90
11963;DHT22;62678;52.130;5.584;2023-07-16T05:01:06;17.20;99.90
11963;DHT22;62678;52.130;5.584;2023-07-16T05:03:33;17.30;99.90
11963;DHT22;62678;52.130;5.584;2023-07-16T05:06:00;17.30;99.90
11963;DHT22;62678;52.130;5.584;2023-07-16T05:08:28;17.40;99.90
11963;DHT22;62678;52.130;5.584;2023-07-16T05:10:56;17.40;99.90
11963;DHT22;62678;52.130;5.584;2023-07-16T05:13:24;17.40;99.90
11963;DHT22;62678;52.130;5.584;2023-07-16T05:15:51;17.50;99.90
11963;DHT22;62678;52.130;5.584;2023-07-16T05:18:18;17.50;99.90
11963;DHT22;62678;52.130;5.584;2023-07-16T05:20:47;17.50;99.90
11963;DHT22;62678;52.130;5.584;2023-07-16T05:23:14;17.60;99.90
11963;DHT22;62678;52.130;5.584;2023-07-16T05:25:46;17.60;99.90
11963;DHT22;62678;52.130;5.584;2023-07-16T05:28:16;17.60;99.90
11963;DHT22;62678;52.130;5.584;2023-07-16T05:30:43;17.60;99.90
11963;DHT22;62678;52.130;5.584;2023-07-16T05:33:10;17.60;99.90
11963;DHT22;62678;52.130;5.584;2023-07-16T05:35:38;17.70;99.90
11963;DHT22;62678;52.130;5.584;2023-07-16T05:38:05;17.80;99.90
11963;DHT22;62678;52.130;5.584;2023-07-16T05:40:33;17.90;99.90
11963;DHT22;62678;52.130;5.584;2023-07-16T05:43:00;17.80;99.90
11963;DHT22;62678;52.130;5.584;2023-07-16T05:45:29;17.90;99.90
11963;DHT22;62678;52.130;5.584;2023-07-16T05:47:56;17.90;99.90
11963;DHT22;62678;52.130;5.584;2023-07-16T05:50:23;17.90;99.90
11963;DHT22;62678;52.130;5.584;2023-07-16T05:52:50;18.00;99.90
11963;DHT22;62678;52.130;5.584;2023-07-16T05:55:17;18.00;99.90
11963;DHT22;62678;52.130;5.584;2023-07-16T05:57:44;18.00;99.90
11963;DHT22;62678;52.130;5.584;2023-07-16T06:00:12;18.10;99.90
11963;DHT22;62678;52.130;5.584;2023-07-16T06:02:41;18.20;99.90
11963;DHT22;62678;52.130;5.584;2023-07-16T06:05:08;18.10;99.90
11963;DHT22;62678;52.130;5.584;2023-07-16T06:07:35;18.20;99.90
11963;DHT22;62678;52.130;5.584;2023-07-16T06:10:03;18.20;99.90
11963;DHT22;62678;52.130;5.584;2023-07-16T06:12:30;18.20;99.90
11963;DHT22;62678;52.130;5.584;2023-07-16T06:14:57;18.20;99.90
11963;DHT22;62678;52.130;5.584;2023-07-16T06:17:24;18.30;99.90
11963;DHT22;62678;52.130;5.584;2023-07-16T06:19:52;18.30;99.90
11963;DHT22;62678;52.130;5.584;2023-07-16T06:22:19;18.30;99.90
11963;DHT22;62678;52.130;5.584;2023-07-16T06:24:47;18.30;99.90
11963;DHT22;62678;52.130;5.584;2023-07-16T06:27:14;18.30;99.90
11963;DHT22;62678;52.130;5.584;2023-07-16T06:29:41;18.30;99.90
11963;DHT22;62678;52.130;5.584;2023-07-16T06:32:09;18.30;99.90
11963;DHT22;62678;52.130;5.584;2023-07-16T06:34:36;18.40;99.90
11963;DHT22;62678;52.130;5.584;2023-07-16T06:37:06;18.50;99.90
11963;DHT22;62678;52.130;5.584;2023-07-16T06:39:33;18.60;99.90
11963;DHT22;62678;52.130;5.584;2023-07-16T06:42:01;18.60;99.90
11963;DHT22;62678;52.130;5.584;2023-07-16T06:44:28;18.70;99.90
11963;DHT22;62678;52.130;5.584;2023-07-16T06:46:56;18.80;99.90
11963;DHT22;62678;52.130;5.584;2023-07-16T06:49:23;18.90;99.90
11963;DHT22;62678;52.130;5.584;2023-07-16T06:51:51;18.90;99.90
11963;DHT22;62678;52.130;5.584;2023-07-16T06:54:19;18.90;99.90
11963;DHT22;62678;52.130;5.584;2023-07-16T06:56:47;19.10;99.90
11963;DHT22;62678;52.130;5.584;2023-07-16T06:59:15;19.00;99.90
11963;DHT22;62678;52.130;5.584;2023-07-16T07:01:44;19.10;99.90
11963;DHT22;62678;52.130;5.584;2023-07-16T07:04:12;19.20;99.90
11963;DHT22;62678;52.130;5.584;2023-07-16T07:06:40;19.20;99.90
11963;DHT22;62678;52.130;5.584;2023-07-16T07:09:07;19.20;99.90
11963;DHT22;62678;52.130;5.584;2023-07-16T07:11:36;19.30;99.90
11963;DHT22;62678;52.130;5.584;2023-07-16T07:14:03;19.50;99.90
11963;DHT22;62678;52.130;5.584;2023-07-16T07:16:30;19.50;99.90
11963;DHT22;62678;52.130;5.584;2023-07-16T07:18:58;19.50;99.90
11963;DHT22;62678;52.130;5.584;2023-07-16T07:21:25;19.40;99.90
11963;DHT22;62678;52.130;5.584;2023-07-16T07:23:54;19.50;99.90
11963;DHT22;62678;52.130;5.584;2023-07-16T07:26:22;19.70;99.90
11963;DHT22;62678;52.130;5.584;2023-07-16T07:28:52;19.90;99.90
11963;DHT22;62678;52.130;5.584;2023-07-16T07:31:19;20.00;99.90
11963;DHT22;62678;52.130;5.584;2023-07-16T07:33:46;20.10;99.90
11963;DHT22;62678;52.130;5.584;2023-07-16T07:36:14;20.10;99.90
11963;DHT22;62678;52.130;5.584;2023-07-16T07:38:41;20.20;99.90
11963;DHT22;62678;52.130;5.584;2023-07-16T07:41:08;20.30;99.90
11963;DHT22;62678;52.130;5.584;2023-07-16T07:43:36;20.40;99.90
11963;DHT22;62678;52.130;5.584;2023-07-16T07:46:05;20.40;99.90
11963;DHT22;62678;52.130;5.584;2023-07-16T07:48:32;20.60;99.90
11963;DHT22;62678;52.130;5.584;2023-07-16T07:51:00;20.50;99.90
11963;DHT22;62678;52.130;5.584;2023-07-16T07:53:27;20.30;99.90
11963;DHT22;62678;52.130;5.584;2023-07-16T07:55:55;20.20;99.90
11963;DHT22;62678;52.130;5.584;2023-07-16T07:58:22;20.30;99.90
11963;DHT22;62678;52.130;5.584;2023-07-16T08:00:49;20.10;99.90
11963;DHT22;62678;52.130;5.584;2023-07-16T08:03:18;20.30;99.90
11963;DHT22;62678;52.130;5.584;2023-07-16T08:05:48;20.40;99.90
11963;DHT22;62678;52.130;5.584;2023-07-16T08:08:16;20.50;99.90
11963;DHT22;62678;52.130;5.584;2023-07-16T08:10:43;20.20;99.90
11963;DHT22;62678;52.130;5.584;2023-07-16T08:13:11;20.10;99.90
11963;DHT22;62678;52.130;5.584;2023-07-16T08:15:39;20.40;99.90
11963;DHT22;62678;52.130;5.584;2023-07-16T08:18:06;20.20;99.90
11963;DHT22;62678;52.130;5.584;2023-07-16T08:20:41;20.50;99.90
11963;DHT22;62678;52.130;5.584;2023-07-16T08:23:10;20.60;99.90
11963;DHT22;62678;52.130;5.584;2023-07-16T08:25:37;20.70;99.90
11963;DHT22;62678;52.130;5.584;2023-07-16T08:28:04;20.70;99.90
11963;DHT22;62678;52.130;5.584;2023-07-16T08:30:33;20.70;99.90
11963;DHT22;62678;52.130;5.584;2023-07-16T08:33:00;20.60;99.90
11963;DHT22;62678;52.130;5.584;2023-07-16T08:35:27;20.40;99.90
11963;DHT22;62678;52.130;5.584;2023-07-16T08:37:55;20.40;99.90
11963;DHT22;62678;52.130;5.584;2023-07-16T08:40:26;20.30;99.90
11963;DHT22;62678;52.130;5.584;2023-07-16T08:42:53;20.50;99.90
11963;DHT22;62678;52.130;5.584;2023-07-16T08:45:21;20.40;99.90
11963;DHT22;62678;52.130;5.584;2023-07-16T08:47:49;20.40;99.90
11963;DHT22;62678;52.130;5.584;2023-07-16T08:50:16;20.40;99.90
11963;DHT22;62678;52.130;5.584;2023-07-16T08:52:45;20.40;99.90
11963;DHT22;62678;52.130;5.584;2023-07-16T08:55:15;20.30;99.90
11963;DHT22;62678;52.130;5.584;2023-07-16T08:57:43;20.20;99.90
11963;DHT22;62678;52.130;5.584;2023-07-16T09:00:11;20.10;99.90
11963;DHT22;62678;52.130;5.584;2023-07-16T09:02:39;19.80;99.90
11963;DHT22;62678;52.130;5.584;2023-07-16T09:05:09;19.80;99.90
11963;DHT22;62678;52.130;5.584;2023-07-16T09:07:38;19.80;99.90
11963;DHT22;62678;52.130;5.584;2023-07-16T09:10:06;20.00;99.90
11963;DHT22;62678;52.130;5.584;2023-07-16T09:12:34;19.90;99.90
11963;DHT22;62678;52.130;5.584;2023-07-16T09:15:03;19.90;99.90
11963;DHT22;62678;52.130;5.584;2023-07-16T09:17:30;20.20;99.90
11963;DHT22;62678;52.130;5.584;2023-07-16T09:19:57;20.40;99.90
11963;DHT22;62678;52.130;5.584;2023-07-16T09:22:25;20.40;99.90
11963;DHT22;62678;52.130;5.584;2023-07-16T09:24:51;20.70;99.90
11963;DHT22;62678;52.130;5.584;2023-07-16T09:27:18;21.30;99.90
11963;DHT22;62678;52.130;5.584;2023-07-16T09:29:50;21.50;99.90
11963;DHT22;62678;52.130;5.584;2023-07-16T09:32:17;21.30;99.90
11963;DHT22;62678;52.130;5.584;2023-07-16T09:34:44;21.00;99.90
11963;DHT22;62678;52.130;5.584;2023-07-16T09:37:12;20.60;99.90
11963;DHT22;62678;52.130;5.584;2023-07-16T09:39:41;20.50;99.90
11963;DHT22;62678;52.130;5.584;2023-07-16T09:42:09;20.50;99.90
11963;DHT22;62678;52.130;5.584;2023-07-16T09:44:36;20.70;99.90
11963;DHT22;62678;52.130;5.584;2023-07-16T09:47:05;21.00;99.90
11963;DHT22;62678;52.130;5.584;2023-07-16T09:49:32;21.20;99.90
11963;DHT22;62678;52.130;5.584;2023-07-16T09:52:01;21.40;99.90
11963;DHT22;62678;52.130;5.584;2023-07-16T09:54:32;21.50;99.90
11963;DHT22;62678;52.130;5.584;2023-07-16T09:57:01;21.50;99.90
11963;DHT22;62678;52.130;5.584;2023-07-16T09:59:31;21.40;99.90
11963;DHT22;62678;52.130;5.584;2023-07-16T10:01:59;21.30;99.90
11963;DHT22;62678;52.130;5.584;2023-07-16T10:04:37;21.30;99.90
11963;DHT22;62678;52.130;5.584;2023-07-16T10:07:05;21.40;99.90
11963;DHT22;62678;52.130;5.584;2023-07-16T10:09:33;21.30;99.90
11963;DHT22;62678;52.130;5.584;2023-07-16T10:12:17;21.40;99.90
11963;DHT22;62678;52.130;5.584;2023-07-16T10:14:45;21.60;99.90
11963;DHT22;62678;52.130;5.584;2023-07-16T10:17:14;21.70;99.90
11963;DHT22;62678;52.130;5.584;2023-07-16T10:19:56;21.60;99.90
11963;DHT22;62678;52.130;5.584;2023-07-16T10:22:34;21.40;99.90
11963;DHT22;62678;52.130;5.584;2023-07-16T10:25:03;21.30;99.90
11963;DHT22;62678;52.130;5.584;2023-07-16T10:27:32;21.30;99.90
11963;DHT22;62678;52.130;5.584;2023-07-16T10:29:59;21.50;99.90
11963;DHT22;62678;52.130;5.584;2023-07-16T10:32:28;21.80;99.90
11963;DHT22;62678;52.130;5.584;2023-07-16T10:34:58;22.10;99.90
11963;DHT22;62678;52.130;5.584;2023-07-16T10:37:25;22.10;99.90
11963;DHT22;62678;52.130;5.584;2023-07-16T10:39:53;22.10;99.90
11963;DHT22;62678;52.130;5.584;2023-07-16T10:42:22;22.10;99.90
11963;DHT22;62678;52.130;5.584;2023-07-16T10:44:49;22.00;99.90
11963;DHT22;62678;52.130;5.584;2023-07-16T10:47:19;21.60;99.90
11963;DHT22;62678;52.130;5.584;2023-07-16T10:49:49;21.50;99.90
11963;DHT22;62678;52.130;5.584;2023-07-16T10:52:19;21.20;99.90
11963;DHT22;62678;52.130;5.584;2023-07-16T10:54:46;21.00;99.90
11963;DHT22;62678;52.130;5.584;2023-07-16T10:57:14;21.20;99.90
11963;DHT22;62678;52.130;5.584;2023-07-16T10:59:44;21.30;99.90
11963;DHT22;62678;52.130;5.584;2023-07-16T11:02:13;21.70;99.90
11963;DHT22;62678;52.130;5.584;2023-07-16T11:04:40;21.90;99.90
11963;DHT22;62678;52.130;5.584;2023-07-16T11:07:08;22.00;99.90
11963;DHT22;62678;52.130;5.584;2023-07-16T11:09:46;21.80;99.90
11963;DHT22;62678;52.130;5.584;2023-07-16T11:12:15;21.90;99.90
11963;DHT22;62678;52.130;5.584;2023-07-16T11:14:45;21.60;99.90
11963;DHT22;62678;52.130;5.584;2023-07-16T11:17:14;21.70;99.90
11963;DHT22;62678;52.130;5.584;2023-07-16T11:19:45;21.60;99.90
11963;DHT22;62678;52.130;5.584;2023-07-16T11:22:14;21.50;99.90
11963;DHT22;62678;52.130;5.584;2023-07-16T11:24:45;21.40;99.90
11963;DHT22;62678;52.130;5.584;2023-07-16T11:27:14;21.60;99.90
11963;DHT22;62678;52.130;5.584;2023-07-16T11:29:45;21.80;99.90
11963;DHT22;62678;52.130;5.584;2023-07-16T11:32:14;21.90;99.90
11963;DHT22;62678;52.130;5.584;2023-07-16T11:34:53;22.20;99.90
11963;DHT22;62678;52.130;5.584;2023-07-16T11:37:21;22.30;99.90
11963;DHT22;62678;52.130;5.584;2023-07-16T11:39:50;22.20;99.90
11963;DHT22;62678;52.130;5.584;2023-07-16T11:42:23;21.80;99.90
11963;DHT22;62678;52.130;5.584;2023-07-16T11:44:51;21.60;99.90
11963;DHT22;62678;52.130;5.584;2023-07-16T11:47:18;21.20;99.90
11963;DHT22;62678;52.130;5.584;2023-07-16T11:49:45;20.90;99.90
11963;DHT22;62678;52.130;5.584;2023-07-16T11:52:13;20.60;99.90
11963;DHT22;62678;52.130;5.584;2023-07-16T11:54:40;20.90;99.90
11963;DHT22;62678;52.130;5.584;2023-07-16T11:57:09;21.20;99.90
11963;DHT22;62678;52.130;5.584;2023-07-16T11:59:36;21.50;99.90
11963;DHT22;62678;52.130;5.584;2023-07-16T12:02:04;21.30;99.90
11963;DHT22;62678;52.130;5.584;2023-07-16T12:04:31;21.50;99.90
11963;DHT22;62678;52.130;5.584;2023-07-16T12:07:02;21.70;99.90
11963;DHT22;62678;52.130;5.584;2023-07-16T12:09:33;21.60;99.90
11963;DHT22;62678;52.130;5.584;2023-07-16T12:12:02;21.60;99.90
11963;DHT22;62678;52.130;5.584;2023-07-16T12:14:34;21.80;99.90
11963;DHT22;62678;52.130;5.584;2023-07-16T12:17:03;21.70;99.90
11963;DHT22;62678;52.130;5.584;2023-07-16T12:19:31;21.70;99.90
11963;DHT22;62678;52.130;5.584;2023-07-16T12:21:59;21.80;99.90
11963;DHT22;62678;52.130;5.584;2023-07-16T12:24:28;22.30;99.90
11963;DHT22;62678;52.130;5.584;2023-07-16T12:27:01;22.80;99.90
11963;DHT22;62678;52.130;5.584;2023-07-16T12:29:29;22.80;99.90
11963;DHT22;62678;52.130;5.584;2023-07-16T12:31:58;22.60;99.90
11963;DHT22;62678;52.130;5.584;2023-07-16T12:34:26;22.90;99.90
11963;DHT22;62678;52.130;5.584;2023-07-16T12:36:54;22.70;99.90
11963;DHT22;62678;52.130;5.584;2023-07-16T12:39:21;23.00;99.90
11963;DHT22;62678;52.130;5.584;2023-07-16T12:41:49;23.00;99.90
11963;DHT22;62678;52.130;5.584;2023-07-16T12:44:16;22.60;99.90
11963;DHT22;62678;52.130;5.584;2023-07-16T12:46:44;22.50;99.90
11963;DHT22;62678;52.130;5.584;2023-07-16T12:49:12;22.60;99.90
11963;DHT22;62678;52.130;5.584;2023-07-16T12:51:40;22.50;99.90
11963;DHT22;62678;52.130;5.584;2023-07-16T12:54:07;22.40;99.90
11963;DHT22;62678;52.130;5.584;2023-07-16T12:56:34;22.80;99.90
11963;DHT22;62678;52.130;5.584;2023-07-16T12:59:02;23.00;99.90
11963;DHT22;62678;52.130;5.584;2023-07-16T13:01:29;22.90;99.90
11963;DHT22;62678;52.130;5.584;2023-07-16T13:03:57;22.90;99.90
11963;DHT22;62678;52.130;5.584;2023-07-16T13:06:26;23.20;99.90
11963;DHT22;62678;52.130;5.584;2023-07-16T13:08:53;23.40;99.90
11963;DHT22;62678;52.130;5.584;2023-07-16T13:11:21;23.40;99.90
11963;DHT22;62678;52.130;5.584;2023-07-16T13:13:48;23.30;99.90
11963;DHT22;62678;52.130;5.584;2023-07-16T13:16:15;23.40;99.90
11963;DHT22;62678;52.130;5.584;2023-07-16T13:18:43;23.20;99.90
11963;DHT22;62678;52.130;5.584;2023-07-16T13:21:10;23.00;99.90
11963;DHT22;62678;52.130;5.584;2023-07-16T13:23:39;23.00;99.90
11963;DHT22;62678;52.130;5.584;2023-07-16T13:26:06;22.80;99.90
11963;DHT22;62678;52.130;5.584;2023-07-16T13:28:33;22.90;99.90
11963;DHT22;62678;52.130;5.584;2023-07-16T13:31:01;22.60;99.90
11963;DHT22;62678;52.130;5.584;2023-07-16T13:33:28;22.80;99.90
11963;DHT22;62678;52.130;5.584;2023-07-16T13:35:56;22.90;99.90
11963;DHT22;62678;52.130;5.584;2023-07-16T13:38:27;22.50;99.90
11963;DHT22;62678;52.130;5.584;2023-07-16T13:40:55;23.00;99.90
11963;DHT22;62678;52.130;5.584;2023-07-16T13:43:22;23.10;99.90
11963;DHT22;62678;52.130;5.584;2023-07-16T13:45:50;23.10;99.90
11963;DHT22;62678;52.130;5.584;2023-07-16T13:48:17;23.30;99.90
11963;DHT22;62678;52.130;5.584;2023-07-16T13:50:44;23.50;99.90
11963;DHT22;62678;52.130;5.584;2023-07-16T13:53:11;23.40;99.90
11963;DHT22;62678;52.130;5.584;2023-07-16T13:55:39;23.20;99.90
11963;DHT22;62678;52.130;5.584;2023-07-16T13:58:08;23.30;99.90
11963;DHT22;62678;52.130;5.584;2023-07-16T14:00:35;23.00;99.90
11963;DHT22;62678;52.130;5.584;2023-07-16T14:03:03;23.20;99.90
11963;DHT22;62678;52.130;5.584;2023-07-16T14:05:30;23.40;99.90
11963;DHT22;62678;52.130;5.584;2023-07-16T14:08:00;23.40;99.90
11963;DHT22;62678;52.130;5.584;2023-07-16T14:10:27;23.40;99.90
11963;DHT22;62678;52.130;5.584;2023-07-16T14:12:54;23.60;99.90
11963;DHT22;62678;52.130;5.584;2023-07-16T14:15:23;24.20;99.90
11963;DHT22;62678;52.130;5.584;2023-07-16T14:17:50;23.80;99.90
11963;DHT22;62678;52.130;5.584;2023-07-16T14:20:17;23.70;99.90
11963;DHT22;62678;52.130;5.584;2023-07-16T14:22:44;24.10;99.90
11963;DHT22;62678;52.130;5.584;2023-07-16T14:25:11;24.20;99.90
11963;DHT22;62678;52.130;5.584;2023-07-16T14:27:38;24.00;99.90
11963;DHT22;62678;52.130;5.584;2023-07-16T14:30:07;23.80;99.90
11963;DHT22;62678;52.130;5.584;2023-07-16T14:32:35;23.70;99.90
11963;DHT22;62678;52.130;5.584;2023-07-16T14:35:03;23.50;99.90
11963;DHT22;62678;52.130;5.584;2023-07-16T14:37:30;23.40;99.90
11963;DHT22;62678;52.130;5.584;2023-07-16T14:39:57;23.10;99.90
11963;DHT22;62678;52.130;5.584;2023-07-16T14:42:24;23.10;99.90
11963;DHT22;62678;52.130;5.584;2023-07-16T14:44:51;23.10;99.90
11963;DHT22;62678;52.130;5.584;2023-07-16T14:47:17;23.10;99.90
11963;DHT22;62678;52.130;5.584;2023-07-16T14:49:45;23.30;99.90
11963;DHT22;62678;52.130;5.584;2023-07-16T14:52:12;23.80;99.90
11963;DHT22;62678;52.130;5.584;2023-07-16T14:54:39;24.40;99.90
11963;DHT22;62678;52.130;5.584;2023-07-16T14:57:06;25.00;99.90
11963;DHT22;62678;52.130;5.584;2023-07-16T14:59:33;25.70;99.90
11963;DHT22;62678;52.130;5.584;2023-07-16T15:02:03;25.70;99.90
11963;DHT22;62678;52.130;5.584;2023-07-16T15:04:30;25.30;99.90
11963;DHT22;62678;52.130;5.584;2023-07-16T15:06:58;25.50;99.90
11963;DHT22;62678;52.130;5.584;2023-07-16T15:09:25;25.40;99.90
11963;DHT22;62678;52.130;5.584;2023-07-16T15:11:53;25.10;99.90
11963;DHT22;62678;52.130;5.584;2023-07-16T15:14:20;24.80;99.90
11963;DHT22;62678;52.130;5.584;2023-07-16T15:16:47;24.30;99.90
11963;DHT22;62678;52.130;5.584;2023-07-16T15:19:17;24.10;99.90
11963;DHT22;62678;52.130;5.584;2023-07-16T15:21:45;24.30;99.90
11963;DHT22;62678;52.130;5.584;2023-07-16T15:24:13;24.60;99.90
11963;DHT22;62678;52.130;5.584;2023-07-16T15:26:41;24.30;99.90
11963;DHT22;62678;52.130;5.584;2023-07-16T15:29:07;24.30;99.90
11963;DHT22;62678;52.130;5.584;2023-07-16T15:31:34;24.30;99.90
11963;DHT22;62678;52.130;5.584;2023-07-16T15:34:01;24.60;99.90
11963;DHT22;62678;52.130;5.584;2023-07-16T15:36:28;24.90;99.90